Time;durP1;ratioP1;P1;durP2;ratioP2;P2;SDS_P1;SDS_P2;PMS_P1;PMS_P2;Temp;Humidity;BMP_temperature;BMP_pressure;BME280_temperature;BME280_humidity;BME280_pressure;Samples;Min_cycle;Max_cycle;Signal;HPM_P1;HPM_P2
2021/07/13 00:00:35;;;;;;;12.75;7.78;;;;;;;-145.18;100.00;60484.78;5101006;28;20015;-66
2021/07/13 00:03:03;;;;;;;15.63;8.35;;;;;;;-145.18;100.00;60484.78;5097362;28;20271;-67
2021/07/13 00:05:29;;;;;;;12.77;8.80;;;;;;;-145.18;100.00;60484.78;5097311;28;20261;-67
2021/07/13 00:07:55;;;;;;;13.57;8.30;;;;;;;-145.18;100.00;60484.78;5090437;28;20272;-67
2021/07/13 00:10:29;;;;;;;15.63;9.55;;;;;;;-145.18;100.00;60484.78;5101148;28;20153;-66
2021/07/13 00:12:56;;;;;;;14.13;8.95;;;;;;;-145.18;100.00;60484.78;5092310;28;20112;-66
2021/07/13 00:15:37;;;;;;;13.30;8.60;;;;;;;-145.18;100.00;60484.78;5090448;28;20028;-67
2021/07/13 00:18:04;;;;;;;12.50;8.10;;;;;;;-145.18;100.00;60484.78;5098195;28;20042;-67
2021/07/13 00:20:30;;;;;;;12.27;8.43;;;;;;;-145.18;100.00;60484.78;5099442;28;20499;-66
2021/07/13 00:22:56;;;;;;;13.35;7.88;;;;;;;-145.18;100.00;60484.78;5098755;28;20158;-67
2021/07/13 00:25:22;;;;;;;12.13;8.02;;;;;;;-145.18;100.00;60484.78;5095786;28;20321;-66
2021/07/13 00:27:48;;;;;;;11.35;7.95;;;;;;;-145.18;100.00;60484.78;5099301;28;20034;-66
2021/07/13 00:30:16;;;;;;;13.68;8.18;;;;;;;-145.18;100.00;60484.78;5095490;28;20039;-66
2021/07/13 00:32:42;;;;;;;11.43;7.70;;;;;;;-145.18;100.00;60484.78;5095062;28;20415;-66
2021/07/13 00:35:08;;;;;;;12.10;7.40;;;;;;;-145.18;100.00;60484.78;5100405;28;20039;-66
2021/07/13 00:37:34;;;;;;;12.77;7.80;;;;;;;-145.18;100.00;60484.78;5097682;28;20497;-66
2021/07/13 00:40:00;;;;;;;13.57;8.25;;;;;;;-145.18;100.00;60484.78;5099783;28;20259;-67
2021/07/13 00:42:26;;;;;;;12.38;7.82;;;;;;;-145.18;100.00;60484.78;5090399;28;20023;-67
2021/07/13 00:44:51;;;;;;;13.40;8.80;;;;;;;-145.18;100.00;60484.78;5085416;28;20111;-67
2021/07/13 00:47:19;;;;;;;12.95;8.43;;;;;;;-145.18;100.00;60484.78;5097760;28;20501;-67
2021/07/13 00:49:46;;;;;;;15.80;9.27;;;;;;;-145.18;100.00;60484.78;5089609;28;20039;-67
2021/07/13 00:52:12;;;;;;;14.45;8.98;;;;;;;-145.18;100.00;60484.78;5089937;28;20180;-67
2021/07/13 00:54:39;;;;;;;14.65;8.80;;;;;;;-145.18;100.00;60484.78;5089231;28;20347;-66
2021/07/13 00:57:07;;;;;;;14.40;9.27;;;;;;;-145.18;100.00;60484.78;5096872;28;20039;-66
2021/07/13 00:59:33;;;;;;;15.68;8.98;;;;;;;-145.18;100.00;60484.78;5091871;28;20031;-67
2021/07/13 01:01:58;;;;;;;12.73;8.25;;;;;;;-145.18;100.00;60484.78;5104603;27;20488;-66
2021/07/13 01:04:24;;;;;;;13.60;8.30;;;;;;;-145.18;100.00;60484.78;5093650;22;20032;-69
2021/07/13 01:07:05;;;;;;;13.50;8.98;;;;;;;-145.18;100.00;60484.78;5081452;28;20118;-70
2021/07/13 01:10:13;;;;;;;14.32;9.02;;;;;;;-145.18;100.00;60484.78;5077784;28;20123;-69
2021/07/13 01:13:28;;;;;;;14.20;9.48;;;;;;;-145.18;100.00;60484.78;4989754;28;20695;-69
2021/07/13 01:16:46;;;;;;;13.55;8.88;;;;;;;-145.18;100.00;60484.78;4872394;29;20600;-69
2021/07/13 01:19:43;;;;;;;14.52;8.25;;;;;;;-145.18;100.00;60484.78;4878846;29;20111;-69
2021/07/13 01:22:14;;;;;;;17.53;7.80;;;;;;;-145.18;100.00;60484.78;4892832;29;20051;-69
2021/07/13 01:25:05;;;;;;;13.80;8.60;;;;;;;-145.18;100.00;60484.78;4892549;29;20082;-69
2021/07/13 01:28:13;;;;;;;16.87;9.90;;;;;;;-145.18;100.00;60484.78;4899715;29;20107;-69
2021/07/13 01:30:43;;;;;;;14.40;8.93;;;;;;;-145.18;100.00;60484.78;4888718;29;20656;-69
2021/07/13 01:33:13;;;;;;;15.73;10.23;;;;;;;-145.18;100.00;60484.78;4889675;29;20036;-69
2021/07/13 01:35:48;;;;;;;17.57;9.77;;;;;;;-145.18;100.00;60484.78;4884196;29;20063;-69
2021/07/13 01:38:16;;;;;;;13.48;9.20;;;;;;;-145.18;100.00;60484.78;4892756;29;20060;-69
2021/07/13 01:40:49;;;;;;;14.57;8.60;;;;;;;-145.18;100.00;60484.78;4888752;29;20513;-69
2021/07/13 01:43:15;;;;;;;13.85;7.93;;;;;;;-145.18;100.00;60484.78;4892836;29;20051;-69
2021/07/13 01:45:42;;;;;;;14.10;8.20;;;;;;;-145.18;100.00;60484.78;4896301;28;20647;-69
2021/07/13 01:48:12;;;;;;;13.27;8.77;;;;;;;-145.18;100.00;60484.78;4961969;28;20030;-69
2021/07/13 01:50:40;;;;;;;17.98;8.57;;;;;;;-145.18;100.00;60484.78;4975582;28;20053;-69
2021/07/13 01:53:07;;;;;;;14.52;9.02;;;;;;;-145.18;100.00;60484.78;5014581;28;20412;-69
2021/07/13 01:55:39;;;;;;;15.25;9.07;;;;;;;-145.18;100.00;60484.78;5044053;28;20044;-69
2021/07/13 01:58:05;;;;;;;18.48;10.40;;;;;;;-145.18;100.00;60484.78;5076947;28;20646;-69
2021/07/13 02:00:32;;;;;;;13.25;8.50;;;;;;;-145.18;100.00;60484.78;5079126;28;20028;-69
2021/07/13 02:03:00;;;;;;;15.25;9.20;;;;;;;-145.18;100.00;60484.78;5078430;28;20480;-69
2021/07/13 02:05:28;;;;;;;14.10;8.25;;;;;;;-145.18;100.00;60484.78;5088958;28;20495;-69
2021/07/13 02:07:57;;;;;;;17.33;9.80;;;;;;;-145.18;100.00;60484.78;5083796;28;20800;-69
2021/07/13 02:10:23;;;;;;;15.27;9.27;;;;;;;-145.18;100.00;60484.78;5086798;28;20408;-69
2021/07/13 02:12:49;;;;;;;17.40;8.95;;;;;;;-145.18;100.00;60484.78;5071942;28;20028;-69
2021/07/13 02:15:14;;;;;;;14.60;8.15;;;;;;;-145.18;100.00;60484.78;5079233;28;20117;-69
2021/07/13 02:17:40;;;;;;;15.77;9.20;;;;;;;-145.18;100.00;60484.78;5079223;28;20028;-69
2021/07/13 02:20:10;;;;;;;16.25;9.10;;;;;;;-145.18;100.00;60484.78;5079151;28;20157;-69
2021/07/13 02:22:37;;;;;;;15.57;9.32;;;;;;;-145.18;100.00;60484.78;5078772;28;20450;-69
2021/07/13 02:25:07;;;;;;;16.80;9.60;;;;;;;-145.18;100.00;60484.78;5068981;28;20159;-69
2021/07/13 02:27:35;;;;;;;14.18;9.18;;;;;;;-145.18;100.00;60484.78;5076991;28;20234;-69
2021/07/13 02:30:06;;;;;;;15.00;9.30;;;;;;;-145.18;100.00;60484.78;5070770;28;20265;-69
2021/07/13 02:32:45;;;;;;;17.02;9.07;;;;;;;-145.18;100.00;60484.78;5077937;28;20425;-69
2021/07/13 02:35:13;;;;;;;14.80;9.77;;;;;;;-145.18;100.00;60484.78;5067271;28;20035;-69
2021/07/13 02:37:40;;;;;;;18.50;10.60;;;;;;;-145.18;100.00;60484.78;5079101;28;20384;-69
2021/07/13 02:40:10;;;;;;;15.85;10.18;;;;;;;-145.18;100.00;60484.78;5078427;28;20081;-69
2021/07/13 02:42:36;;;;;;;16.08;10.02;;;;;;;-145.18;100.00;60484.78;5080555;28;20107;-69
2021/07/13 02:45:03;;;;;;;15.70;10.07;;;;;;;-145.18;100.00;60484.78;5089055;28;20634;-71
2021/07/13 02:47:30;;;;;;;17.65;10.45;;;;;;;-145.18;100.00;60484.78;5077869;28;20117;-71
2021/07/13 02:49:56;;;;;;;17.35;9.05;;;;;;;-145.18;100.00;60484.78;5076517;28;20055;-71
2021/07/13 02:52:25;;;;;;;18.38;9.00;;;;;;;-145.18;100.00;60484.78;5078372;28;20124;-71
2021/07/13 02:54:56;;;;;;;18.95;9.70;;;;;;;-145.18;100.00;60484.78;5078266;28;20299;-71
2021/07/13 02:57:23;;;;;;;16.30;9.77;;;;;;;-145.18;100.00;60484.78;5077453;28;20635;-71
2021/07/13 02:59:51;;;;;;;18.83;9.43;;;;;;;-145.18;100.00;60484.78;5080336;28;20302;-71
2021/07/13 03:02:22;;;;;;;18.97;8.90;;;;;;;-145.18;100.00;60484.78;5078058;28;20259;-71
2021/07/13 03:04:50;;;;;;;22.07;10.13;;;;;;;-145.18;100.00;60484.78;5074235;28;20074;-71
2021/07/13 03:07:18;;;;;;;18.50;9.87;;;;;;;-145.18;100.00;60484.78;5078299;28;20525;-71
2021/07/13 03:09:43;;;;;;;18.07;11.27;;;;;;;-145.18;100.00;60484.78;5077491;28;20258;-71
2021/07/13 03:12:10;;;;;;;20.37;12.13;;;;;;;-145.18;100.00;60484.78;5077751;28;20032;-71
2021/07/13 03:14:38;;;;;;;22.40;12.77;;;;;;;-145.18;100.00;60484.78;5072491;28;20056;-71
2021/07/13 03:17:06;;;;;;;21.70;13.20;;;;;;;-145.18;100.00;60484.78;5078866;28;20036;-71
2021/07/13 03:19:31;;;;;;;22.10;11.80;;;;;;;-145.18;100.00;60484.78;5078971;28;20027;-71
2021/07/13 03:21:59;;;;;;;22.50;12.37;;;;;;;-145.18;100.00;60484.78;5089717;28;20023;-71
2021/07/13 03:24:26;;;;;;;22.87;12.50;;;;;;;-145.18;100.00;60484.78;5079542;28;20031;-71
2021/07/13 03:26:53;;;;;;;22.20;13.73;;;;;;;-145.18;100.00;60484.78;5081443;28;20032;-71
2021/07/13 03:29:19;;;;;;;20.40;12.33;;;;;;;-145.18;100.00;60484.78;5078508;28;20037;-71
2021/07/13 03:31:46;;;;;;;23.27;13.63;;;;;;;-145.18;100.00;60484.78;5088285;28;20040;-71
2021/07/13 03:34:12;;;;;;;23.23;12.63;;;;;;;-145.18;100.00;60484.78;5080746;28;20118;-71
2021/07/13 03:36:40;;;;;;;18.55;11.75;;;;;;;-145.18;100.00;60484.78;5081195;28;20456;-71
2021/07/13 03:39:06;;;;;;;20.23;12.57;;;;;;;-145.18;100.00;60484.78;5083150;28;20195;-71
2021/07/13 03:41:32;;;;;;;18.95;11.40;;;;;;;-145.18;100.00;60484.78;5081375;28;20035;-71
2021/07/13 03:44:01;;;;;;;20.27;12.43;;;;;;;-145.18;100.00;60484.78;5080802;28;20046;-71
2021/07/13 03:46:27;;;;;;;19.42;11.93;;;;;;;-145.18;100.00;60484.78;5081206;28;20199;-71
2021/07/13 03:48:54;;;;;;;19.60;12.80;;;;;;;-145.18;100.00;60484.78;5083987;28;20028;-71
2021/07/13 03:51:43;;;;;;;20.87;12.40;;;;;;;-145.18;100.00;60484.78;5080641;28;20036;-71
2021/07/13 03:54:12;;;;;;;24.90;12.38;;;;;;;-145.18;100.00;60484.78;5073466;28;20027;-71
2021/07/13 03:56:38;;;;;;;21.45;12.07;;;;;;;-145.18;100.00;60484.78;5080214;28;20078;-71
2021/07/13 03:59:04;;;;;;;23.88;13.35;;;;;;;-145.18;100.00;60484.78;5081268;28;20500;-71
2021/07/13 04:01:30;;;;;;;20.15;12.40;;;;;;;-145.18;100.00;60484.78;5081208;28;20032;-71
2021/07/13 04:03:56;;;;;;;22.45;12.38;;;;;;;-145.18;100.00;60484.78;5079914;28;20047;-71
2021/07/13 04:06:22;;;;;;;21.98;11.88;;;;;;;-145.18;100.00;60484.78;5079614;28;20273;-71
2021/07/13 04:08:47;;;;;;;21.48;12.90;;;;;;;-145.18;100.00;60484.78;5080733;28;20034;-71
2021/07/13 04:11:13;;;;;;;21.13;12.57;;;;;;;-145.18;100.00;60484.78;5078135;28;20025;-71
2021/07/13 04:13:39;;;;;;;19.25;11.65;;;;;;;-145.18;100.00;60484.78;5065191;28;20039;-71
2021/07/13 04:16:04;;;;;;;18.02;10.88;;;;;;;-145.18;100.00;60484.78;5078830;28;20341;-71
2021/07/13 04:18:30;;;;;;;20.10;10.38;;;;;;;-145.18;100.00;60484.78;5080038;28;20056;-71
2021/07/13 04:20:55;;;;;;;14.00;9.70;;;;;;;-145.18;100.00;60484.78;5077446;28;20503;-71
2021/07/13 04:23:21;;;;;;;15.50;10.20;;;;;;;-145.18;100.00;60484.78;5080827;28;20112;-71
2021/07/13 04:25:47;;;;;;;17.17;10.15;;;;;;;-145.18;100.00;60484.78;5064157;28;20190;-71
2021/07/13 04:28:13;;;;;;;14.75;9.50;;;;;;;-145.18;100.00;60484.78;5084499;28;20081;-71
2021/07/13 04:30:38;;;;;;;17.15;9.40;;;;;;;-145.18;100.00;60484.78;5084579;28;20024;-71
2021/07/13 04:33:04;;;;;;;14.73;9.30;;;;;;;-145.18;100.00;60484.78;5078946;28;20557;-71
2021/07/13 04:35:30;;;;;;;12.75;8.88;;;;;;;-145.18;100.00;60484.78;5079471;28;20106;-71
2021/07/13 04:37:56;;;;;;;18.98;8.48;;;;;;;-145.18;100.00;60484.78;5076661;28;20056;-71
2021/07/13 04:40:22;;;;;;;13.55;8.52;;;;;;;-145.18;100.00;60484.78;5078532;28;20536;-71
2021/07/13 04:42:48;;;;;;;13.63;8.38;;;;;;;-145.18;100.00;60484.78;5077988;28;20027;-71
2021/07/13 04:45:13;;;;;;;13.30;8.05;;;;;;;-145.18;100.00;60484.78;5080569;28;20499;-71
2021/07/13 04:47:39;;;;;;;14.60;8.30;;;;;;;-145.18;100.00;60484.78;5079853;28;20028;-71
2021/07/13 04:50:06;;;;;;;12.30;8.25;;;;;;;-145.18;100.00;60484.78;5080462;28;20089;-71
2021/07/13 04:52:32;;;;;;;11.77;7.82;;;;;;;-145.18;100.00;60484.78;5078868;28;20379;-71
2021/07/13 04:54:57;;;;;;;18.90;8.18;;;;;;;-145.18;100.00;60484.78;5080444;28;20035;-71
2021/07/13 04:57:23;;;;;;;16.90;7.82;;;;;;;-145.18;100.00;60484.78;5080524;28;20028;-71
2021/07/13 04:59:48;;;;;;;14.02;7.70;;;;;;;-145.18;100.00;60484.78;5080118;28;20091;-70
2021/07/13 05:02:14;;;;;;;11.52;7.38;;;;;;;-145.18;100.00;60484.78;5077728;28;20089;-70
2021/07/13 05:04:39;;;;;;;11.15;7.10;;;;;;;-145.18;100.00;60484.78;5080335;28;20225;-71
2021/07/13 05:07:05;;;;;;;12.25;7.43;;;;;;;-145.18;100.00;60484.78;5079826;28;20147;-70
2021/07/13 05:09:30;;;;;;;12.35;7.68;;;;;;;-145.18;100.00;60484.78;5078521;28;20380;-71
2021/07/13 05:11:56;;;;;;;12.27;7.68;;;;;;;-145.18;100.00;60484.78;5081213;28;20042;-71
2021/07/13 05:14:21;;;;;;;10.25;7.60;;;;;;;-145.18;100.00;60484.78;5077285;28;20044;-71
2021/07/13 05:16:47;;;;;;;10.82;7.13;;;;;;;-145.18;100.00;60484.78;5078787;28;20081;-71
2021/07/13 05:19:14;;;;;;;13.95;7.60;;;;;;;-145.18;100.00;60484.78;5077388;28;20035;-70
2021/07/13 05:21:42;;;;;;;13.70;7.55;;;;;;;-145.18;100.00;60484.78;5078460;28;20328;-71
2021/07/13 05:24:08;;;;;;;10.93;6.80;;;;;;;-145.18;100.00;60484.78;5075153;28;20460;-70
2021/07/13 05:26:33;;;;;;;10.15;7.13;;;;;;;-145.18;100.00;60484.78;5079669;28;20198;-70
2021/07/13 05:29:04;;;;;;;11.23;7.47;;;;;;;-145.18;100.00;60484.78;5074665;28;20530;-70
2021/07/13 05:31:29;;;;;;;10.98;7.32;;;;;;;-145.18;100.00;60484.78;5075261;28;20031;-71
2021/07/13 05:33:57;;;;;;;13.25;7.38;;;;;;;-145.18;100.00;60484.78;5073078;28;20020;-71
2021/07/13 05:36:24;;;;;;;14.95;7.40;;;;;;;-145.18;100.00;60484.78;5078242;28;20036;-71
2021/07/13 05:38:49;;;;;;;12.10;7.82;;;;;;;-145.18;100.00;60484.78;5079118;28;20035;-71
2021/07/13 05:41:15;;;;;;;13.52;8.50;;;;;;;-145.18;100.00;60484.78;5081367;28;20023;-71
2021/07/13 05:43:41;;;;;;;13.18;8.60;;;;;;;-145.18;100.00;60484.78;5078075;28;20385;-71
2021/07/13 05:46:07;;;;;;;13.27;7.82;;;;;;;-145.18;100.00;60484.78;5078690;28;20472;-71
2021/07/13 05:48:33;;;;;;;14.07;8.43;;;;;;;-145.18;100.00;60484.78;5078941;28;20171;-71
2021/07/13 05:50:58;;;;;;;16.88;7.65;;;;;;;-145.18;100.00;60484.78;5079105;28;20111;-72
2021/07/13 05:53:24;;;;;;;14.73;8.35;;;;;;;-145.18;100.00;60484.78;5078619;28;20411;-72
2021/07/13 05:55:52;;;;;;;14.60;8.32;;;;;;;-145.18;100.00;60484.78;5079080;28;20089;-72
2021/07/13 05:58:20;;;;;;;11.98;8.00;;;;;;;-145.18;100.00;60484.78;5078999;28;20024;-71
2021/07/13 06:00:47;;;;;;;15.50;8.50;;;;;;;-145.18;100.00;60484.78;5075240;28;20492;-71
2021/07/13 06:03:12;;;;;;;12.93;8.32;;;;;;;-145.18;100.00;60484.78;5067987;28;20048;-71
2021/07/13 06:05:38;;;;;;;13.50;8.18;;;;;;;-145.18;100.00;60484.78;5077699;28;20333;-71
2021/07/13 06:08:04;;;;;;;12.85;8.27;;;;;;;-145.18;100.00;60484.78;5074983;28;20195;-71
2021/07/13 06:10:29;;;;;;;14.43;8.48;;;;;;;-145.18;100.00;60484.78;5078742;28;20097;-71
2021/07/13 06:12:55;;;;;;;12.93;8.52;;;;;;;-145.18;100.00;60484.78;5079311;28;20036;-71
2021/07/13 06:15:20;;;;;;;14.95;8.45;;;;;;;-145.18;100.00;60484.78;5078772;28;20103;-71
2021/07/13 06:17:46;;;;;;;12.15;8.25;;;;;;;-145.18;100.00;60484.78;5075988;28;21107;-71
2021/07/13 06:20:12;;;;;;;16.83;8.07;;;;;;;-145.18;100.00;60484.78;5074786;28;20161;-71
2021/07/13 06:22:39;;;;;;;12.80;8.20;;;;;;;-145.18;100.00;60484.78;5078236;28;20341;-71
2021/07/13 06:25:05;;;;;;;12.85;7.97;;;;;;;-145.18;100.00;60484.78;5081114;28;20031;-71
2021/07/13 06:27:31;;;;;;;15.32;8.02;;;;;;;-145.18;100.00;60484.78;5077742;28;20476;-71
2021/07/13 06:29:56;;;;;;;11.52;7.95;;;;;;;-145.18;100.00;60484.78;5081841;28;20024;-71
2021/07/13 06:32:22;;;;;;;12.00;7.82;;;;;;;-145.18;100.00;60484.78;5078348;28;20074;-71
2021/07/13 06:34:47;;;;;;;13.80;8.10;;;;;;;-145.18;100.00;60484.78;5079967;28;20105;-71
2021/07/13 06:37:13;;;;;;;11.10;7.80;;;;;;;-145.18;100.00;60484.78;5078080;28;20020;-71
2021/07/13 06:39:38;;;;;;;11.90;7.90;;;;;;;-145.18;100.00;60484.78;5078344;28;20081;-71
2021/07/13 06:42:04;;;;;;;12.10;7.95;;;;;;;-145.18;100.00;60484.78;5081280;28;20097;-71
2021/07/13 06:44:30;;;;;;;12.75;8.10;;;;;;;-145.18;100.00;60484.78;5078426;28;20478;-71
2021/07/13 06:46:55;;;;;;;11.20;7.13;;;;;;;-145.18;100.00;60484.78;5078019;28;20024;-71
2021/07/13 06:49:20;;;;;;;11.05;7.80;;;;;;;-145.18;100.00;60484.78;5078618;28;20020;-71
2021/07/13 06:51:46;;;;;;;11.65;7.45;;;;;;;-145.18;100.00;60484.78;5078233;28;20698;-71
2021/07/13 06:54:12;;;;;;;15.38;6.78;;;;;;;-145.18;100.00;60484.78;5082153;28;20571;-71
2021/07/13 06:56:37;;;;;;;11.25;7.20;;;;;;;-145.18;100.00;60484.78;5081590;28;20157;-71
2021/07/13 06:59:03;;;;;;;13.20;7.20;;;;;;;-145.18;100.00;60484.78;5082391;28;20028;-71
2021/07/13 07:01:28;;;;;;;11.98;7.13;;;;;;;-145.18;100.00;60484.78;5081968;28;20074;-71
2021/07/13 07:03:54;;;;;;;14.40;7.40;;;;;;;-145.18;100.00;60484.78;5082077;28;20606;-71
2021/07/13 07:06:19;;;;;;;11.32;7.13;;;;;;;-145.18;100.00;60484.78;5080652;28;20089;-71
2021/07/13 07:08:44;;;;;;;11.57;7.18;;;;;;;-145.18;100.00;60484.78;5079314;28;20074;-71
2021/07/13 07:11:11;;;;;;;10.40;7.10;;;;;;;-145.18;100.00;60484.78;5081755;28;20059;-71
2021/07/13 07:13:36;;;;;;;15.02;7.28;;;;;;;-145.18;100.00;60484.78;5081732;28;20028;-71
2021/07/13 07:16:02;;;;;;;14.02;7.45;;;;;;;-145.18;100.00;60484.78;5081146;28;20041;-71
2021/07/13 07:18:28;;;;;;;12.25;7.63;;;;;;;-145.18;100.00;60484.78;5081804;28;20020;-71
2021/07/13 07:20:53;;;;;;;12.15;7.68;;;;;;;-145.18;100.00;60484.78;5081637;28;20051;-71
2021/07/13 07:23:19;;;;;;;12.18;8.10;;;;;;;-145.18;100.00;60484.78;5081760;28;20042;-71
2021/07/13 07:25:44;;;;;;;12.43;8.10;;;;;;;-145.18;100.00;60484.78;5081199;28;20016;-71
2021/07/13 07:28:13;;;;;;;11.98;7.68;;;;;;;-145.18;100.00;60484.78;5080955;28;20020;-71
2021/07/13 07:30:38;;;;;;;12.25;7.50;;;;;;;-145.18;100.00;60484.78;5081263;28;20280;-71
2021/07/13 07:33:04;;;;;;;13.50;8.05;;;;;;;-145.18;100.00;60484.78;5077309;28;20033;-71
2021/07/13 07:35:30;;;;;;;12.93;8.25;;;;;;;-145.18;100.00;60484.78;5079370;28;20395;-71
2021/07/13 07:37:56;;;;;;;11.68;7.65;;;;;;;-145.18;100.00;60484.78;5080928;28;20501;-71
2021/07/13 07:40:22;;;;;;;11.43;7.40;;;;;;;-145.18;100.00;60484.78;5081113;28;20081;-71
2021/07/13 07:42:51;;;;;;;9.02;6.35;;;;;;;-145.18;100.00;60484.78;5084057;28;20043;-71
2021/07/13 07:45:18;;;;;;;11.90;7.45;;;;;;;-145.18;100.00;60484.78;5081070;28;20030;-71
2021/07/13 07:47:44;;;;;;;10.68;6.82;;;;;;;-145.18;100.00;60484.78;5080613;28;20048;-71
2021/07/13 07:50:11;;;;;;;13.35;7.35;;;;;;;-145.18;100.00;60484.78;5081046;28;20043;-71
2021/07/13 07:52:37;;;;;;;11.55;7.18;;;;;;;-145.18;100.00;60484.78;5080798;28;20050;-71
2021/07/13 07:55:05;;;;;;;11.88;7.50;;;;;;;-145.18;100.00;60484.78;5081060;28;20024;-71
2021/07/13 07:57:30;;;;;;;12.20;7.22;;;;;;;-145.18;100.00;60484.78;5080147;28;20032;-71
2021/07/13 07:59:56;;;;;;;10.90;7.63;;;;;;;-145.18;100.00;60484.78;5080751;28;20081;-71
2021/07/13 08:02:21;;;;;;;11.73;7.53;;;;;;;-145.18;100.00;60484.78;5080746;28;20293;-71
2021/07/13 08:04:47;;;;;;;12.50;7.18;;;;;;;-145.18;100.00;60484.78;5077803;28;20048;-71
2021/07/13 08:07:12;;;;;;;12.70;7.50;;;;;;;-145.18;100.00;60484.78;5070617;28;20033;-71
2021/07/13 08:09:38;;;;;;;14.70;7.38;;;;;;;-145.18;100.00;60484.78;5064422;28;20153;-71
2021/07/13 08:12:04;;;;;;;8.45;6.05;;;;;;;-145.18;100.00;60484.78;5071632;28;20036;-70
2021/07/13 08:14:29;;;;;;;10.00;6.50;;;;;;;-145.18;100.00;60484.78;5064267;28;20520;-70
2021/07/13 08:16:56;;;;;;;11.85;6.22;;;;;;;-145.18;100.00;60484.78;5072911;28;20166;-70
2021/07/13 08:19:22;;;;;;;9.95;6.30;;;;;;;-145.18;100.00;60484.78;5060148;28;20384;-71
2021/07/13 08:21:48;;;;;;;11.15;5.88;;;;;;;-145.18;100.00;60484.78;5065483;28;20040;-70
2021/07/13 08:24:14;;;;;;;8.85;5.78;;;;;;;-145.18;100.00;60484.78;5065926;28;20430;-70
2021/07/13 08:26:40;;;;;;;8.57;5.88;;;;;;;-145.18;100.00;60484.78;5074783;28;20493;-71
2021/07/13 08:29:06;;;;;;;10.55;5.93;;;;;;;-145.18;100.00;60484.78;5065357;28;20178;-70
2021/07/13 08:31:31;;;;;;;8.75;5.78;;;;;;;-145.18;100.00;60484.78;5075781;28;20024;-70
2021/07/13 08:33:57;;;;;;;10.45;5.70;;;;;;;-145.18;100.00;60484.78;5059176;28;20157;-70
2021/07/13 08:36:22;;;;;;;9.18;5.20;;;;;;;-145.18;100.00;60484.78;5076801;28;20314;-70
2021/07/13 08:38:48;;;;;;;7.55;5.07;;;;;;;-145.18;100.00;60484.78;5064793;28;20345;-70
2021/07/13 08:41:13;;;;;;;8.32;5.13;;;;;;;-145.18;100.00;60484.78;5078014;28;20457;-71
2021/07/13 08:43:40;;;;;;;7.68;5.15;;;;;;;-145.18;100.00;60484.78;5078132;28;20480;-71
2021/07/13 08:46:06;;;;;;;9.02;5.55;;;;;;;-145.18;100.00;60484.78;5079099;28;20028;-71
2021/07/13 08:48:33;;;;;;;8.63;5.32;;;;;;;-145.18;100.00;60484.78;5064365;28;20032;-71
2021/07/13 08:51:01;;;;;;;10.25;5.40;;;;;;;-145.18;100.00;60484.78;5080186;28;20620;-71
2021/07/13 08:53:29;;;;;;;7.07;4.95;;;;;;;-145.18;100.00;60484.78;5076300;28;20031;-71
2021/07/13 08:55:55;;;;;;;8.73;4.95;;;;;;;-145.18;100.00;60484.78;5072766;28;20093;-71
2021/07/13 08:58:22;;;;;;;8.70;5.40;;;;;;;-145.18;100.00;60484.78;5064939;28;20028;-71
2021/07/13 09:00:50;;;;;;;8.00;5.28;;;;;;;-145.18;100.00;60484.78;5079759;28;20020;-71
2021/07/13 09:03:20;;;;;;;7.20;4.88;;;;;;;-145.18;100.00;60484.78;5060935;28;20511;-71
2021/07/13 09:05:53;;;;;;;9.50;4.60;;;;;;;-145.18;100.00;60484.78;5059849;28;20264;-70
2021/07/13 09:08:22;;;;;;;8.57;4.80;;;;;;;-145.18;100.00;60484.78;5058341;28;20267;-71
2021/07/13 09:11:05;;;;;;;8.48;5.15;;;;;;;-145.18;100.00;60484.78;5057363;28;20029;-71
2021/07/13 09:13:43;;;;;;;9.45;4.40;;;;;;;-145.18;100.00;60484.78;5047875;28;20029;-71
2021/07/13 09:16:12;;;;;;;9.90;4.90;;;;;;;-145.18;100.00;60484.78;5057690;28;20051;-71
2021/07/13 09:18:46;;;;;;;7.95;4.75;;;;;;;-145.18;100.00;60484.78;5058446;28;20028;-71
2021/07/13 09:21:18;;;;;;;8.07;4.95;;;;;;;-145.18;100.00;60484.78;5045157;28;20017;-71
2021/07/13 09:24:22;;;;;;;8.70;4.60;;;;;;;-145.18;100.00;60484.78;5058396;28;20318;-71
2021/07/13 09:26:57;;;;;;;9.05;4.95;;;;;;;-145.18;100.00;60484.78;5057916;28;20081;-71
2021/07/13 09:29:53;;;;;;;16.90;5.00;;;;;;;-145.18;100.00;60484.78;5046524;28;20024;-71
2021/07/13 09:32:45;;;;;;;9.43;4.90;;;;;;;-145.18;100.00;60484.78;5045381;28;20113;-71
2021/07/13 09:35:11;;;;;;;;;;;;;;;-145.18;100.00;60484.78;5052300;28;20519;-71
2021/07/13 09:37:47;;;;;;;8.13;5.03;;;;;;;-145.18;100.00;60484.78;5058437;28;20357;-72
2021/07/13 09:40:17;;;;;;;9.70;5.38;;;;;;;-145.18;100.00;60484.78;5058203;28;20024;-72
2021/07/13 09:42:51;;;;;;;9.77;5.43;;;;;;;-145.18;100.00;60484.78;5057900;28;20055;-72
2021/07/13 09:45:36;;;;;;;8.50;5.20;;;;;;;-145.18;100.00;60484.78;5058409;28;20492;-72
2021/07/13 09:48:13;;;;;;;8.50;5.70;;;;;;;-145.18;100.00;60484.78;5057778;28;20504;-71
2021/07/13 09:50:43;;;;;;;9.65;6.13;;;;;;;-145.18;100.00;60484.78;5057618;28;20028;-71
2021/07/13 09:53:22;;;;;;;11.23;6.45;;;;;;;-145.18;100.00;60484.78;5057963;28;20036;-71
2021/07/13 09:55:49;;;;;;;9.95;6.38;;;;;;;-145.18;100.00;60484.78;5058063;28;20081;-71
2021/07/13 09:58:26;;;;;;;9.98;6.45;;;;;;;-145.18;100.00;60484.78;5057798;28;20348;-72
2021/07/13 10:00:57;;;;;;;8.98;5.97;;;;;;;-145.18;100.00;60484.78;5057940;28;20298;-72
2021/07/13 10:03:23;;;;;;;10.70;6.63;;;;;;;-145.18;100.00;60484.78;5058026;28;20111;-72
2021/07/13 10:05:50;;;;;;;12.73;7.05;;;;;;;-145.18;100.00;60484.78;5016776;28;1196496;-72
2021/07/13 10:08:17;;;;;;;10.23;5.75;;;;;;;-145.18;100.00;60484.78;5058790;28;20044;-72
2021/07/13 10:10:44;;;;;;;9.68;6.28;;;;;;;-145.18;100.00;60484.78;5058870;28;20205;-72
2021/07/13 10:13:12;;;;;;;9.48;5.88;;;;;;;-145.18;100.00;60484.78;5058404;28;20105;-72
2021/07/13 10:15:48;;;;;;;9.32;6.15;;;;;;;-145.18;100.00;60484.78;5058903;28;20264;-72
2021/07/13 10:18:13;;;;;;;10.43;6.25;;;;;;;-145.18;100.00;60484.78;5058566;28;20196;-72
2021/07/13 10:20:41;;;;;;;10.18;5.68;;;;;;;-145.18;100.00;60484.78;5059171;28;20016;-71
2021/07/13 10:23:10;;;;;;;9.60;5.88;;;;;;;-145.18;100.00;60484.78;5058514;28;20123;-71
2021/07/13 10:25:43;;;;;;;12.38;6.65;;;;;;;-145.18;100.00;60484.78;5058766;28;20024;-71
2021/07/13 10:28:09;;;;;;;12.82;6.78;;;;;;;-145.18;100.00;60484.78;5061177;28;20496;-71
2021/07/13 10:30:38;;;;;;;9.68;6.53;;;;;;;-145.18;100.00;60484.78;5062567;28;20056;-72
2021/07/13 10:33:46;;;;;;;9.70;6.68;;;;;;;-145.18;100.00;60484.78;5058353;28;20032;-71
2021/07/13 10:36:41;;;;;;;12.07;6.93;;;;;;;-145.18;100.00;60484.78;5050768;28;20351;-71
2021/07/13 10:39:35;;;;;;;12.80;6.38;;;;;;;-145.18;100.00;60484.78;5049336;28;20502;-71
2021/07/13 10:42:02;;;;;;;11.32;7.53;;;;;;;-145.18;100.00;60484.78;5062071;28;20105;-71
2021/07/13 10:44:48;;;;;;;10.95;7.47;;;;;;;-145.18;100.00;60484.78;5062325;28;20270;-71
2021/07/13 10:47:34;;;;;;;11.20;7.05;;;;;;;-145.18;100.00;60484.78;5062293;28;20060;-71
2021/07/13 10:50:40;;;;;;;14.85;7.78;;;;;;;-145.18;100.00;60484.78;5062381;28;20027;-71
2021/07/13 10:53:25;;;;;;;14.45;7.28;;;;;;;-145.18;100.00;60484.78;4999257;28;20038;-71
2021/07/13 10:56:04;;;;;;;16.73;7.70;;;;;;;-145.18;100.00;60484.78;4999691;28;20378;-71
2021/07/13 10:58:38;;;;;;;14.30;8.50;;;;;;;-145.18;100.00;60484.78;4999625;28;20038;-71
2021/07/13 11:01:20;;;;;;;12.57;8.70;;;;;;;-145.18;100.00;60484.78;4999407;28;20030;-71
2021/07/13 11:03:50;;;;;;;12.13;8.50;;;;;;;-145.18;100.00;60484.78;4999051;28;20052;-71
2021/07/13 11:06:18;;;;;;;15.32;9.23;;;;;;;-145.18;100.00;60484.78;4999437;28;20034;-72
2021/07/13 11:08:53;;;;;;;13.02;8.90;;;;;;;-145.18;100.00;60484.78;4999555;28;20112;-71
2021/07/13 11:11:48;;;;;;;14.27;9.35;;;;;;;-145.18;100.00;60484.78;4999097;28;20585;-71